»·PEaware :: N530AH KBFL-KWHP

N530AH :: KBFL-KWHP

FLIGHT INFORMATION

Flight Status: Arrived
Operator: Privately registered:
United States
More flights under this callsign
Pilot: Charles M. (41337)
Aircraft: CESSNA 172 SKYHAWK
(C172)
More flights by this aircraft type
Origin: KBFL Meadows
United States
Destination: KWHP Whiteman
United States
More flights between these airports :: More routes between these airports
Route:
File this flight plan on PilotEdge
Remarks:
Altitude:
(Current/Filed)
6,500ft
Speed:
(Current/Filed)
110kts
Departed: 03-Aug-23 06:53 PM
Arrived: 03-Aug-23 07:37 PM
Distance/Time
Traveled:
77nm/0:44
Distance/Time
To Go:
Arrived

Flight Plot

Page will automatically refresh every two minutes.


Map Options




Map Legend


Flown Route
Filed Route
Departure Airport
Arrival Airport
Navaid (VOR, NDB)
Fix

Horizontal Profiles

Position Reports

Time Latitude Longitude Heading Altitude Ground
Speed
03-Aug-23 18:38 35.429439 -119.046647 315 483ft 0kts
03-Aug-23 18:39 35.429439 -119.046647 315 483ft 0kts
03-Aug-23 18:40 35.429439 -119.046647 315 483ft 0kts
03-Aug-23 18:41 35.429439 -119.046647 315 483ft 0kts
03-Aug-23 18:41 35.429439 -119.046647 315 483ft 0kts
03-Aug-23 18:42 35.429439 -119.046647 315 483ft 0kts
03-Aug-23 18:44 35.429439 -119.046647 315 483ft 0kts
03-Aug-23 18:45 35.429439 -119.046647 315 483ft 0kts
03-Aug-23 18:46 35.429439 -119.046647 315 483ft 0kts
03-Aug-23 18:46 35.429439 -119.046647 315 483ft 0kts
03-Aug-23 18:47 35.429477 -119.046705 305 483ft 3kts
03-Aug-23 18:48 35.428809 -119.047842 135 483ft 8kts
03-Aug-23 18:50 35.425881 -119.045015 228 479ft 9kts
03-Aug-23 18:51 35.425802 -119.045122 224 481ft 0kts
03-Aug-23 18:51 35.426294 -119.047042 313 483ft 36kts
03-Aug-23 18:52 35.440092 -119.063757 318 776ft 82kts
03-Aug-23 18:53 35.438230 -119.083378 160 1247ft 100kts
03-Aug-23 18:54 35.415546 -119.061660 145 1655ft 102kts
03-Aug-23 18:55 35.392694 -119.039327 137 2154ft 104kts
03-Aug-23 18:56 35.370033 -119.017851 142 2753ft 105kts
03-Aug-23 18:57 35.343759 -119.002154 165 3294ft 107kts
03-Aug-23 18:58 35.315724 -118.995082 176 3894ft 103kts
03-Aug-23 18:59 35.287454 -118.994109 183 4380ft 102kts
03-Aug-23 19:00 35.259242 -118.997164 189 4888ft 102kts
03-Aug-23 19:01 35.230985 -118.998678 180 5347ft 100kts
03-Aug-23 19:02 35.202838 -118.994905 167 5793ft 101kts
03-Aug-23 19:03 35.175009 -118.986343 171 6256ft 102kts
03-Aug-23 19:04 35.146908 -118.978801 166 6658ft 103kts
03-Aug-23 19:05 35.120355 -118.964781 150 7004ft 105kts
03-Aug-23 19:06 35.094260 -118.948332 165 7353ft 105kts
03-Aug-23 19:07 35.065513 -118.946386 190 7610ft 111kts
03-Aug-23 19:08 35.032770 -118.945840 171 7569ft 119kts
03-Aug-23 19:09 35.000523 -118.935769 162 7578ft 121kts
03-Aug-23 19:10 34.969551 -118.919232 152 7578ft 122kts
03-Aug-23 19:11 34.939570 -118.898932 153 7582ft 122kts
03-Aug-23 19:12 34.909565 -118.878251 152 7580ft 125kts
03-Aug-23 19:13 34.879597 -118.857622 152 7589ft 128kts
03-Aug-23 19:14 34.847900 -118.835431 151 7594ft 132kts
03-Aug-23 19:15 34.815478 -118.812870 152 7588ft 134kts
03-Aug-23 19:16 34.783457 -118.789721 152 7587ft 133kts
03-Aug-23 19:17 34.751885 -118.766565 151 7587ft 132kts
03-Aug-23 19:18 34.720205 -118.743685 151 7587ft 133kts
03-Aug-23 19:19 34.688152 -118.720229 151 7578ft 134kts
03-Aug-23 19:20 34.656274 -118.697245 151 7568ft 130kts
03-Aug-23 19:21 34.626207 -118.675357 151 7557ft 126kts
03-Aug-23 19:22 34.595763 -118.653102 151 7322ft 127kts
03-Aug-23 19:23 34.565782 -118.630997 150 6847ft 119kts
03-Aug-23 19:24 34.537467 -118.609839 150 6377ft 120kts
03-Aug-23 19:25 34.509317 -118.588920 150 5881ft 119kts
03-Aug-23 19:26 34.480877 -118.568795 154 5436ft 115kts
03-Aug-23 19:27 34.453358 -118.552262 159 5427ft 116kts
03-Aug-23 19:28 34.422300 -118.538425 161 5439ft 120kts
03-Aug-23 19:29 34.390020 -118.525355 164 5087ft 123kts
03-Aug-23 19:30 34.357377 -118.513846 163 4311ft 122kts
03-Aug-23 19:31 34.329486 -118.494408 133 3630ft 113kts
03-Aug-23 19:32 34.310012 -118.468101 130 3063ft 101kts
03-Aug-23 19:33 34.291736 -118.447986 139 2488ft 75kts
03-Aug-23 19:34 34.276720 -118.431912 136 1765ft 69kts
03-Aug-23 19:35 34.262137 -118.416484 137 1054ft 61kts
03-Aug-23 19:36 34.258172 -118.411636 317 1020ft 5kts
03-Aug-23 19:37 34.260000 -118.411524 46 1017ft 7kts
03-Aug-23 19:38 34.260418 -118.411563 314 1018ft 0kts
03-Aug-23 19:39 34.260418 -118.411563 314 1016ft 0kts
03-Aug-23 19:40 34.260418 -118.411563 314 1016ft 0kts
03-Aug-23 19:41 34.260418 -118.411563 314 1016ft 0kts
03-Aug-23 19:42 34.260418 -118.411563 314 1016ft 0kts
03-Aug-23 19:43 34.260418 -118.411563 314 1016ft 0kts
03-Aug-23 19:44 34.260418 -118.411563 314 1016ft 0kts
03-Aug-23 19:45 34.260418 -118.411563 314 1016ft 0kts
03-Aug-23 19:46 34.260418 -118.411563 314 1016ft 0kts
03-Aug-23 19:47 34.260418 -118.411563 314 1016ft 0kts
03-Aug-23 19:48 34.260418 -118.411563 314 1016ft 0kts
03-Aug-23 19:49 34.260418 -118.411563 314 1016ft 0kts
03-Aug-23 19:50 34.260418 -118.411563 314 1016ft 0kts

Navigation Log

Ident Type
Flight plan parsing failed, navigation log unavailable